createdAt,value
2023-03-26T00:04:19.945Z,100784.19
2023-03-26T00:06:49.081Z,100786.06
2023-03-26T00:09:38.932Z,100789.88
2023-03-26T00:12:10.790Z,100793.03
2023-03-26T00:14:37.651Z,100782.91
2023-03-26T00:17:04.579Z,100778.66
2023-03-26T00:19:34.186Z,100773.94
2023-03-26T00:22:00.706Z,100772.69
2023-03-26T00:24:30.060Z,100769.09
2023-03-26T00:26:56.529Z,100772.56
2023-03-26T00:29:32.002Z,100771.78
2023-03-26T00:31:58.602Z,100779.41
2023-03-26T00:34:26.683Z,100776.56
2023-03-26T00:36:55.009Z,100766.91
2023-03-26T00:39:23.977Z,100763.13
2023-03-26T00:41:54.845Z,100764.53
2023-03-26T00:44:21.630Z,100756.81
2023-03-26T00:46:48.248Z,100746.22
2023-03-26T00:49:14.889Z,100740.72
2023-03-26T00:51:41.944Z,100746.91
2023-03-26T00:54:11.071Z,100746.44
2023-03-26T01:02:17.279Z,100734.09
2023-03-26T01:04:55.592Z,100739.63
2023-03-26T01:07:31.007Z,100735.78
2023-03-26T01:10:04.041Z,100728.22
2023-03-26T01:12:34.194Z,100730.22
2023-03-26T01:15:01.834Z,100727.88
2023-03-26T01:17:37.997Z,100724.72
2023-03-26T01:20:20.776Z,100718.56
2023-03-26T01:22:53.463Z,100710.81
2023-03-26T01:25:23.665Z,100698.00
2023-03-26T01:27:55.832Z,100690.63
2023-03-26T01:30:34.134Z,100687.94
2023-03-26T01:33:14.339Z,100693.31
2023-03-26T01:35:53.385Z,100693.63
2023-03-26T01:38:46.924Z,100686.00
2023-03-26T01:41:26.788Z,100679.16
2023-03-26T01:44:02.045Z,100684.69
2023-03-26T01:46:36.066Z,100677.41
2023-03-26T01:49:05.232Z,100676.59
2023-03-26T01:51:35.897Z,100675.84
2023-03-26T01:54:08.703Z,100670.00
2023-03-26T01:57:05.570Z,100665.72
2023-03-26T02:00:07.109Z,100661.81
2023-03-26T02:02:39.290Z,100653.72
2023-03-26T02:05:15.214Z,100658.78
2023-03-26T02:08:00.535Z,100639.50
2023-03-26T02:10:33.112Z,100637.91
2023-03-26T02:13:00.400Z,100633.66
2023-03-26T02:15:29.403Z,100631.28
2023-03-26T02:17:56.034Z,100633.97
2023-03-26T02:20:22.596Z,100633.66
2023-03-26T02:22:51.967Z,100635.88
2023-03-26T02:25:27.598Z,100627.03
2023-03-26T02:27:54.407Z,100624.34
2023-03-26T02:30:29.779Z,100616.16
2023-03-26T02:32:59.246Z,100615.03
2023-03-26T02:35:26.107Z,100615.81
2023-03-26T02:37:55.002Z,100611.22
2023-03-26T02:40:22.553Z,100612.22
2023-03-26T02:42:49.948Z,100606.69
2023-03-26T02:45:16.472Z,100606.38
2023-03-26T02:47:43.399Z,100611.56
2023-03-26T02:50:12.150Z,100609.75
2023-03-26T02:52:45.307Z,100596.47
2023-03-26T02:55:20.019Z,100595.00
2023-03-26T02:57:46.481Z,100599.59
2023-03-26T03:00:23.568Z,100600.81
2023-03-26T03:02:50.472Z,100600.81
2023-03-26T03:05:18.624Z,100596.59
2023-03-26T03:07:48.008Z,100595.91
2023-03-26T03:10:15.524Z,100585.63
2023-03-26T03:12:42.770Z,100581.47
2023-03-26T03:15:12.599Z,100588.88
2023-03-26T03:23:08.770Z,100580.16
2023-03-26T03:31:09.074Z,100564.03
2023-03-26T03:33:35.872Z,100563.69
2023-03-26T03:36:10.410Z,100568.41
2023-03-26T03:38:46.851Z,100560.78
2023-03-26T03:41:13.481Z,100568.97
2023-03-26T03:43:46.487Z,100572.44
2023-03-26T03:46:13.101Z,100571.31
2023-03-26T03:48:39.735Z,100560.56
2023-03-26T03:51:08.910Z,100566.38
2023-03-26T03:56:29.228Z,100565.28
2023-03-26T03:58:58.440Z,100560.78
2023-03-26T04:01:25.165Z,100556.50
2023-03-26T04:03:51.979Z,100555.72
2023-03-26T04:06:19.265Z,100552.69
2023-03-26T04:08:46.495Z,100550.00
2023-03-26T04:11:14.341Z,100547.31
2023-03-26T04:13:40.872Z,100537.31
2023-03-26T04:16:07.703Z,100541.94
2023-03-26T04:18:34.431Z,100533.84
2023-03-26T04:21:03.224Z,100535.06
2023-03-26T04:23:30.056Z,100524.31
2023-03-26T04:25:59.670Z,100526.22
2023-03-26T04:28:41.640Z,100528.91
2023-03-26T04:34:14.350Z,100518.13
2023-03-26T04:36:42.438Z,100512.75
2023-03-26T04:39:11.628Z,100507.38
2023-03-26T04:41:40.507Z,100493.91
2023-03-26T04:44:06.933Z,100490.88
2023-03-26T04:46:33.744Z,100493.22
2023-03-26T04:49:01.776Z,100484.38
2023-03-26T04:51:35.173Z,100482.47
2023-03-26T04:54:08.851Z,100478.19
2023-03-26T04:56:52.769Z,100473.59
2023-03-26T04:59:39.013Z,100473.94
2023-03-26T05:02:06.364Z,100464.72
2023-03-26T05:04:36.969Z,100467.41
2023-03-26T05:07:03.612Z,100467.41
2023-03-26T05:09:30.939Z,100458.56
2023-03-26T05:11:58.485Z,100456.66
2023-03-26T05:14:25.040Z,100452.84
2023-03-26T05:16:53.395Z,100450.94
2023-03-26T05:19:20.263Z,100451.69
2023-03-26T05:21:46.708Z,100447.13
2023-03-26T05:24:19.899Z,100447.56
2023-03-26T05:26:46.366Z,100446.78
2023-03-26T05:29:14.942Z,100440.25
2023-03-26T05:31:41.401Z,100431.06
2023-03-26T05:34:07.919Z,100434.53
2023-03-26T05:36:34.317Z,100437.22
2023-03-26T05:39:01.334Z,100426.44
2023-03-26T05:41:27.919Z,100416.81
2023-03-26T05:43:54.399Z,100422.31
2023-03-26T05:46:22.979Z,100422.66
2023-03-26T05:48:49.898Z,100421.16
2023-03-26T05:51:29.003Z,100422.31
2023-03-26T05:53:55.824Z,100422.41
2023-03-26T05:56:22.301Z,100414.22
2023-03-26T05:58:49.374Z,100411.19
2023-03-26T06:01:18.054Z,100406.94
2023-03-26T06:03:45.552Z,100410.72
2023-03-26T06:09:01.410Z,100405.00
2023-03-26T06:11:28.900Z,100393.13
2023-03-26T06:13:55.362Z,100390.88
2023-03-26T06:16:27.142Z,100383.56
2023-03-26T06:19:06.302Z,100382.44
2023-03-26T06:21:32.733Z,100377.50
2023-03-26T06:26:52.305Z,100374.56
2023-03-26T06:29:41.317Z,100376.56
2023-03-26T06:32:18.489Z,100371.97
2023-03-26T06:34:45.916Z,100374.31
2023-03-26T06:37:12.399Z,100375.19
2023-03-26T06:39:38.923Z,100370.25
2023-03-26T06:42:05.572Z,100368.34
2023-03-26T06:44:34.316Z,100368.44
2023-03-26T06:47:01.047Z,100359.91
2023-03-26T06:49:27.907Z,100368.09
2023-03-26T06:51:54.380Z,100367.31
2023-03-26T06:54:22.022Z,100366.16
2023-03-26T06:56:48.528Z,100365.84
2023-03-26T06:59:18.107Z,100361.22
2023-03-26T07:01:50.603Z,100367.06
2023-03-26T07:04:32.362Z,100368.63
2023-03-26T07:07:01.577Z,100369.41
2023-03-26T07:09:30.839Z,100367.94
2023-03-26T07:12:03.109Z,100364.09
2023-03-26T07:14:44.742Z,100364.91
2023-03-26T07:17:20.429Z,100365.69
2023-03-26T07:19:47.226Z,100362.63
2023-03-26T07:22:22.105Z,100360.72
2023-03-26T07:24:49.398Z,100362.72
2023-03-26T07:27:25.067Z,100365.84
2023-03-26T07:30:06.108Z,100363.59
2023-03-26T07:33:03.806Z,100365.16
2023-03-26T07:35:57.609Z,100362.91
2023-03-26T07:38:48.873Z,100357.50
2023-03-26T07:41:28.992Z,100365.34
2023-03-26T07:44:10.532Z,100362.41
2023-03-26T07:46:37.420Z,100360.38
2023-03-26T07:49:05.381Z,100360.38
2023-03-26T07:51:32.802Z,100361.28
2023-03-26T07:54:00.758Z,100359.00
2023-03-26T07:56:42.822Z,100359.00
2023-03-26T07:59:34.502Z,100356.66
2023-03-26T08:02:13.344Z,100354.81
2023-03-26T08:05:05.576Z,100356.50
2023-03-26T08:07:51.611Z,100352.69
2023-03-26T08:10:33.151Z,100345.72
2023-03-26T08:13:17.854Z,100347.97
2023-03-26T08:16:20.260Z,100345.72
2023-03-26T08:18:55.251Z,100350.06
2023-03-26T08:21:39.571Z,100346.22
2023-03-26T08:24:35.950Z,100337.34
2023-03-26T08:27:18.726Z,100341.53
2023-03-26T08:30:17.817Z,100338.75
2023-03-26T08:32:56.350Z,100354.91
2023-03-26T08:35:24.546Z,100346.41
2023-03-26T08:37:51.932Z,100349.09
2023-03-26T08:40:44.026Z,100345.97
2023-03-26T08:43:26.907Z,100346.75
2023-03-26T08:46:25.994Z,100343.97
2023-03-26T08:49:29.707Z,100346.22
2023-03-26T08:52:29.892Z,100346.13
2023-03-26T08:55:21.960Z,100349.94
2023-03-26T08:58:21.451Z,100346.81
2023-03-26T09:01:06.267Z,100345.88
2023-03-26T09:03:57.632Z,100348.47
2023-03-26T09:06:47.327Z,100345.78
2023-03-26T09:09:32.048Z,100350.03
2023-03-26T09:12:41.423Z,100349.94
2023-03-26T09:15:44.794Z,100347.06
2023-03-26T09:18:24.393Z,100346.88
2023-03-26T09:21:12.228Z,100344.34
2023-03-26T09:24:03.234Z,100351.44
2023-03-26T09:26:50.983Z,100343.25
2023-03-26T09:29:37.883Z,100341.63
2023-03-26T09:32:35.919Z,100350.47
2023-03-26T09:35:33.075Z,100344.31
2023-03-26T09:38:34.211Z,100348.97
2023-03-26T09:41:12.556Z,100345.19
2023-03-26T09:44:06.263Z,100344.06
2023-03-26T09:46:46.746Z,100350.66
2023-03-26T09:49:54.733Z,100351.09
2023-03-26T09:52:39.856Z,100356.94
2023-03-26T09:55:21.596Z,100360.41
2023-03-26T09:58:25.108Z,100361.00
2023-03-26T10:01:06.954Z,100364.03
2023-03-26T10:03:40.791Z,100366.28
2023-03-26T10:06:19.141Z,100366.97
2023-03-26T10:09:02.837Z,100376.53
2023-03-26T10:11:58.484Z,100376.97
2023-03-26T10:14:45.140Z,100378.41
2023-03-26T10:17:36.317Z,100378.06
2023-03-26T10:20:24.782Z,100380.66
2023-03-26T10:23:28.754Z,100381.00
2023-03-26T10:26:04.357Z,100378.31
2023-03-26T10:28:53.669Z,100382.25
2023-03-26T10:31:46.508Z,100384.94
2023-03-26T10:34:29.681Z,100388.84
2023-03-26T10:36:59.714Z,100390.31
2023-03-26T10:39:48.163Z,100388.75
2023-03-26T10:42:33.178Z,100390.78
2023-03-26T10:45:09.268Z,100386.59
2023-03-26T10:47:50.938Z,100397.84
2023-03-26T10:50:23.605Z,100396.25
2023-03-26T10:53:03.212Z,100396.94
2023-03-26T10:55:45.430Z,100401.63
2023-03-26T10:58:22.094Z,100406.16
2023-03-26T11:00:57.730Z,100411.78
2023-03-26T11:03:46.023Z,100399.75
2023-03-26T11:06:38.761Z,100411.91
2023-03-26T11:09:30.049Z,100417.28
2023-03-26T11:11:56.459Z,100418.38
2023-03-26T11:14:51.562Z,100413.19
2023-03-26T11:17:41.425Z,100409.56
2023-03-26T11:20:20.401Z,100422.72
2023-03-26T11:23:20.145Z,100422.94
2023-03-26T11:26:00.854Z,100419.69
2023-03-26T11:28:40.040Z,100418.78
2023-03-26T11:31:31.549Z,100427.56
2023-03-26T11:34:05.844Z,100422.72
2023-03-26T11:36:37.547Z,100429.78
2023-03-26T11:39:10.736Z,100432.84
2023-03-26T11:41:37.300Z,100434.53
2023-03-26T11:44:14.286Z,100439.56
2023-03-26T11:46:45.070Z,100435.56
2023-03-26T11:49:14.753Z,100444.47
2023-03-26T11:51:43.577Z,100440.44
2023-03-26T11:54:12.336Z,100436.41
2023-03-26T11:57:04.793Z,100453.16
2023-03-26T11:59:55.614Z,100447.91
2023-03-26T12:02:34.182Z,100450.47
2023-03-26T12:05:21.979Z,100447.88
2023-03-26T12:07:57.260Z,100451.91
2023-03-26T12:10:32.845Z,100452.63
2023-03-26T12:13:02.672Z,100459.13
2023-03-26T12:15:31.969Z,100460.78
2023-03-26T12:18:17.574Z,100459.75
2023-03-26T12:20:45.078Z,100458.63
2023-03-26T12:23:49.333Z,100456.63
2023-03-26T12:26:20.846Z,100460.84
2023-03-26T12:28:49.917Z,100466.59
2023-03-26T12:31:19.144Z,100466.75
2023-03-26T12:34:04.287Z,100466.94
2023-03-26T12:36:33.438Z,100470.59
2023-03-26T12:39:42.777Z,100474.59
2023-03-26T12:44:42.570Z,100480.16
2023-03-26T12:45:00.071Z,100471.59
2023-03-26T12:48:00.847Z,100474.72
2023-03-26T12:50:34.347Z,100479.13
2023-03-26T12:53:20.429Z,100481.47
2023-03-26T12:56:06.058Z,100483.91
2023-03-26T12:59:07.238Z,100492.97
2023-03-26T13:01:53.170Z,100490.53
2023-03-26T13:04:49.163Z,100492.38
2023-03-26T13:07:59.812Z,100499.88
2023-03-26T13:10:49.732Z,100501.97
2023-03-26T13:13:47.421Z,100494.81
2023-03-26T13:16:19.628Z,100508.94
2023-03-26T13:19:01.186Z,100511.19
2023-03-26T13:22:04.997Z,100513.97
2023-03-26T13:25:08.142Z,100513.78
2023-03-26T13:27:43.160Z,100523.09
2023-03-26T13:30:17.767Z,100524.69
2023-03-26T13:32:59.591Z,100521.25
2023-03-26T13:35:36.833Z,100528.84
2023-03-26T13:38:13.531Z,100522.59
2023-03-26T13:40:55.252Z,100531.13
2023-03-26T13:43:43.260Z,100529.47
2023-03-26T13:46:20.848Z,100535.47
2023-03-26T13:49:04.477Z,100536.34
2023-03-26T13:51:42.372Z,100533.06
2023-03-26T13:54:22.471Z,100536.09
2023-03-26T13:57:08.432Z,100539.06
2023-03-26T13:59:44.842Z,100543.25
2023-03-26T14:02:24.055Z,100547.75
2023-03-26T14:04:56.875Z,100545.31
2023-03-26T14:07:28.926Z,100547.75
2023-03-26T14:10:08.641Z,100553.41
2023-03-26T14:12:49.395Z,100559.66
2023-03-26T14:15:22.406Z,100566.38
2023-03-26T14:17:57.642Z,100565.09
2023-03-26T14:21:01.873Z,100572.94
2023-03-26T14:23:49.750Z,100574.59
2023-03-26T14:26:44.486Z,100581.91
2023-03-26T14:29:31.820Z,100581.75
2023-03-26T14:32:24.101Z,100587.16
2023-03-26T14:35:14.511Z,100588.09
2023-03-26T14:38:22.829Z,100592.81
2023-03-26T14:40:58.752Z,100597.06
2023-03-26T14:43:59.613Z,100599.50
2023-03-26T14:46:40.880Z,100614.25
2023-03-26T14:49:23.574Z,100612.56
2023-03-26T14:52:01.789Z,100630.28
2023-03-26T14:54:32.258Z,100620.16
2023-03-26T14:57:19.050Z,100627.13
2023-03-26T14:59:48.349Z,100630.09
2023-03-26T15:05:40.301Z,100645.41
2023-03-26T15:08:33.280Z,100644.59
2023-03-26T15:11:24.860Z,100655.53
2023-03-26T15:14:36.354Z,100656.38
2023-03-26T15:17:21.792Z,100658.25
2023-03-26T15:20:15.886Z,100665.59
2023-03-26T15:22:58.775Z,100669.19
2023-03-26T15:25:49.889Z,100668.47
2023-03-26T15:28:25.092Z,100674.09
2023-03-26T15:31:30.911Z,100668.09
2023-03-26T15:34:21.294Z,100678.00
2023-03-26T15:37:02.599Z,100683.41
2023-03-26T15:40:12.720Z,100691.94
2023-03-26T15:42:48.348Z,100699.03
2023-03-26T15:45:34.708Z,100705.97
2023-03-26T15:48:11.627Z,100693.47
2023-03-26T15:51:07.583Z,100713.91
2023-03-26T15:53:33.945Z,100721.16
2023-03-26T15:56:23.277Z,100729.41
2023-03-26T15:59:01.615Z,100736.06
2023-03-26T16:01:50.660Z,100737.56
2023-03-26T16:04:38.538Z,100744.31
2023-03-26T16:07:29.521Z,100762.88
2023-03-26T16:10:16.112Z,100761.53
2023-03-26T16:13:16.647Z,100763.22
2023-03-26T16:15:52.771Z,100773.09
2023-03-26T16:18:27.257Z,100777.25
2023-03-26T16:21:31.994Z,100774.09
2023-03-26T16:24:02.321Z,100783.88
2023-03-26T16:26:33.922Z,100781.19
2023-03-26T16:29:14.931Z,100789.19
2023-03-26T16:32:09.608Z,100794.56
2023-03-26T16:34:59.692Z,100799.94
2023-03-26T16:37:32.120Z,100802.41
2023-03-26T16:40:29.102Z,100817.13
2023-03-26T16:43:08.406Z,100822.38
2023-03-26T16:46:09.201Z,100836.41
2023-03-26T16:48:51.184Z,100849.44
2023-03-26T16:51:39.631Z,100845.28
2023-03-26T16:54:40.494Z,100852.38
2023-03-26T16:57:17.287Z,100850.91
2023-03-26T17:00:07.873Z,100872.13
2023-03-26T17:03:16.994Z,100878.19
2023-03-26T17:05:58.660Z,100882.09
2023-03-26T17:08:43.805Z,100886.00
2023-03-26T17:11:36.445Z,100889.16
2023-03-26T17:14:18.909Z,100889.22
2023-03-26T17:17:04.317Z,100897.06
2023-03-26T17:19:56.448Z,100904.69
2023-03-26T17:22:41.247Z,100916.63
2023-03-26T17:25:34.841Z,100919.75
2023-03-26T17:28:44.605Z,100926.53
2023-03-26T17:31:18.961Z,100924.22
2023-03-26T17:33:45.955Z,100937.53
2023-03-26T17:36:14.862Z,100944.19
2023-03-26T17:38:45.333Z,100954.50
2023-03-26T17:41:14.752Z,100963.53
2023-03-26T17:43:46.090Z,100964.16
2023-03-26T17:46:34.042Z,100971.31
2023-03-26T17:49:12.238Z,100973.88
2023-03-26T17:51:48.964Z,100978.28
2023-03-26T17:54:24.735Z,100977.22
2023-03-26T17:56:56.520Z,100983.22
2023-03-26T17:59:26.718Z,100987.50
2023-03-26T18:01:59.732Z,100991.13
2023-03-26T18:04:39.040Z,101000.47
2023-03-26T18:07:34.805Z,101007.09
2023-03-26T18:10:17.048Z,101007.28
2023-03-26T18:12:51.679Z,101014.28
2023-03-26T18:15:33.765Z,101026.16
2023-03-26T18:18:22.327Z,101027.09
2023-03-26T18:20:51.487Z,101035.19
2023-03-26T18:23:49.063Z,101035.84
2023-03-26T18:26:23.071Z,101048.31
2023-03-26T18:28:54.413Z,101054.50
2023-03-26T18:31:24.917Z,101057.50
2023-03-26T18:33:55.869Z,101056.22
2023-03-26T18:36:25.897Z,101063.03
2023-03-26T18:38:57.820Z,101069.19
2023-03-26T18:41:33.679Z,101080.41
2023-03-26T18:44:13.215Z,101089.09
2023-03-26T18:46:40.599Z,101094.00
2023-03-26T18:49:07.538Z,101101.59
2023-03-26T18:51:43.198Z,101112.19
2023-03-26T18:54:19.744Z,101118.66
2023-03-26T18:56:48.424Z,101122.78
2023-03-26T19:02:36.757Z,101133.19
2023-03-26T19:05:03.638Z,101131.75
2023-03-26T19:07:30.595Z,101141.72
2023-03-26T19:10:00.281Z,101146.44
2023-03-26T19:12:34.002Z,101144.66
2023-03-26T19:15:07.794Z,101151.44
2023-03-26T19:17:41.333Z,101153.81
2023-03-26T19:20:19.771Z,101161.72
2023-03-26T19:23:13.207Z,101162.19
2023-03-26T19:25:49.702Z,101175.31
2023-03-26T19:28:23.498Z,101181.81
2023-03-26T19:31:09.590Z,101192.56
2023-03-26T19:33:39.736Z,101190.31
2023-03-26T19:36:21.486Z,101189.66
2023-03-26T19:38:53.685Z,101196.09
2023-03-26T19:41:26.679Z,101205.19
2023-03-26T19:43:55.823Z,101209.44
2023-03-26T19:46:23.389Z,101214.63
2023-03-26T19:48:53.498Z,101217.44
2023-03-26T19:51:37.462Z,101234.44
2023-03-26T19:54:14.767Z,101230.81
2023-03-26T19:56:43.571Z,101238.78
2023-03-26T19:59:10.121Z,101235.94
2023-03-26T20:01:37.199Z,101239.69
2023-03-26T20:04:18.154Z,101241.13
2023-03-26T20:06:54.087Z,101252.44
2023-03-26T20:12:11.885Z,101260.03
2023-03-26T20:17:21.755Z,101268.91
2023-03-26T20:19:48.711Z,101267.50
2023-03-26T20:22:23.571Z,101266.59
2023-03-26T20:24:51.912Z,101284.47
2023-03-26T20:27:19.386Z,101280.38
2023-03-26T20:29:47.050Z,101289.84
2023-03-26T20:32:23.143Z,101289.66
2023-03-26T20:34:50.785Z,101291.06
2023-03-26T20:37:17.548Z,101290.88
2023-03-26T20:39:44.109Z,101294.34
2023-03-26T20:42:12.480Z,101301.13
2023-03-26T20:44:40.893Z,101302.84
2023-03-26T20:47:09.985Z,101308.81
2023-03-26T20:49:36.434Z,101317.44
2023-03-26T20:52:03.161Z,101325.59
2023-03-26T20:54:32.640Z,101325.72
2023-03-26T20:57:13.426Z,101329.28
2023-03-26T20:59:42.924Z,101341.25
2023-03-26T21:02:10.189Z,101341.84
2023-03-26T21:04:36.733Z,101343.25
2023-03-26T21:07:15.007Z,101343.34
2023-03-26T21:09:47.561Z,101345.31
2023-03-26T21:12:29.694Z,101343.03
2023-03-26T21:14:57.057Z,101352.47
2023-03-26T21:17:23.986Z,101355.25
2023-03-26T21:19:50.852Z,101355.34
2023-03-26T21:22:46.070Z,101367.78
2023-03-26T21:25:37.104Z,101359.44
2023-03-26T21:28:28.945Z,101370.94
2023-03-26T21:31:02.439Z,101366.38
2023-03-26T21:33:28.890Z,101370.44
2023-03-26T21:35:57.296Z,101372.03
2023-03-26T21:38:24.906Z,101378.78
2023-03-26T21:40:58.681Z,101383.47
2023-03-26T21:43:26.065Z,101388.91
2023-03-26T21:45:54.759Z,101399.72
2023-03-26T21:48:21.674Z,101404.34
2023-03-26T21:50:48.381Z,101406.03
2023-03-26T21:53:18.016Z,101419.22
2023-03-26T21:56:18.686Z,101421.69
2023-03-26T21:58:45.985Z,101415.03
2023-03-26T22:01:22.792Z,101423.88
2023-03-26T22:04:06.639Z,101433.50
2023-03-26T22:06:55.501Z,101434.28
2023-03-26T22:09:30.131Z,101444.69
2023-03-26T22:12:03.595Z,101445.22
2023-03-26T22:14:31.405Z,101455.63
2023-03-26T22:16:57.844Z,101454.25
2023-03-26T22:19:24.767Z,101445.66
2023-03-26T22:21:51.264Z,101462.50
2023-03-26T22:24:17.814Z,101466.50
2023-03-26T22:26:44.211Z,101467.56
2023-03-26T22:29:10.761Z,101473.72
2023-03-26T22:32:03.915Z,101467.28
2023-03-26T22:34:37.356Z,101476.81
2023-03-26T22:37:09.276Z,101481.81
2023-03-26T22:39:36.709Z,101491.94
2023-03-26T22:42:04.979Z,101493.34
2023-03-26T22:44:32.158Z,101493.34
2023-03-26T22:46:58.803Z,101497.69
2023-03-26T22:49:27.426Z,101502.63
2023-03-26T22:51:53.936Z,101497.63
2023-03-26T22:54:20.481Z,101503.06
2023-03-26T22:56:46.948Z,101511.19
2023-03-26T22:59:13.752Z,101505.91
2023-03-26T23:01:40.215Z,101513.22
2023-03-26T23:04:07.080Z,101518.38
2023-03-26T23:06:33.788Z,101523.50
2023-03-26T23:09:01.040Z,101529.72
2023-03-26T23:11:29.551Z,101545.06
2023-03-26T23:13:56.442Z,101539.72
2023-03-26T23:16:29.133Z,101545.56
2023-03-26T23:18:55.921Z,101550.06
2023-03-26T23:21:22.701Z,101540.94
2023-03-26T23:24:35.891Z,101558.91
2023-03-26T23:27:03.710Z,101557.28
2023-03-26T23:29:31.921Z,101559.19
2023-03-26T23:31:59.026Z,101564.03
2023-03-26T23:34:25.905Z,101570.69
2023-03-26T23:36:58.133Z,101571.44
2023-03-26T23:39:33.767Z,101577.78
2023-03-26T23:42:01.330Z,101583.66
2023-03-26T23:44:31.222Z,101588.44
2023-03-26T23:46:57.980Z,101590.34
2023-03-26T23:49:24.835Z,101597.53
2023-03-26T23:51:52.133Z,101608.50
2023-03-26T23:54:18.918Z,101611.19
2023-03-26T23:56:45.553Z,101614.94
2023-03-26T23:59:14.989Z,101611.47
